Flight Track Log - Related Links

Times and Time Zones

All times are in EDT time to prevent confusion due to time zone crossing. See the N770NC flight status page for this flight to view local times or setup timezone preferences in your user account.

Time Position Orientation Groundspeed Altitude Reporting Facility
EDT Latitude Longitude Course Direction KTS MPH feet Rate Location/Type
Fri 05:24:59 PM 33.6667 -84.3000 268° West 253 291 4,200  Level Atlanta TRACON
Fri 05:26:00 PM 33.6772 -84.8226 277° West  Level FlightAware Approximate
Fri 05:26:56 PM 33.7878 -84.2861 North 263 303 8,200  Level Atlanta Center
Fri 05:27:00 PM 33.6918 -84.9423 280° West  Level FlightAware Approximate
Fri 05:28:00 PM 33.7105 -85.0731 280° West  Level FlightAware Approximate
Fri 05:28:56 PM 33.8144 -84.4864 279° West 286 329 11,200  Level Atlanta Center
Fri 05:29:00 PM 33.7167 -85.2051 270° West  Level FlightAware Approximate
Fri 05:29:56 PM 33.7847 -84.5986 252° West 328 377 13,200  Level Atlanta Center
Fri 05:30:00 PM 33.7125 -85.3377 268° West  Level FlightAware Approximate
Fri 05:30:56 PM 33.7592 -84.7058 254° West 344 396 14,600  Level Atlanta Center
Fri 05:31:56 PM 33.7314 -84.8181 253° West 351 404 16,200 1,500 Climbing Atlanta Center
Fri 05:32:56 PM 33.6992 -84.9453 253° West 376 433 17,600 1,200 Climbing Atlanta Center
Fri 05:33:56 PM 33.6794 -85.0572 258° West 381 438 18,600 1,150 Climbing Atlanta Center
Fri 05:34:56 PM 33.6700 -85.1919 265° West 399 459 19,900 1,300 Climbing Atlanta Center
Fri 05:35:56 PM 33.6622 -85.3242 266° West 404 465 21,200 1,250 Climbing Atlanta Center
Fri 05:36:56 PM 33.6483 -85.4611 263° West 410 472 22,400 1,300 Climbing Atlanta Center
Fri 05:37:56 PM 33.6425 -85.5958 267° West 410 472 23,800 1,300 Climbing Atlanta Center
Fri 05:38:56 PM 33.6386 -85.7306 268° West 404 465 25,000 1,050 Climbing Atlanta Center
Fri 05:39:56 PM 33.6283 -85.8600 265° West 404 465 25,900 850 Climbing Atlanta Center
Fri 05:40:56 PM 33.6325 -85.9950 272° West 399 459 26,700 800 Climbing Atlanta Center
Fri 05:41:56 PM 33.6303 -86.1344 269° West 410 472 27,500 650 Climbing Atlanta Center
Fri 05:42:56 PM 33.6319 -86.2744 271° West 415 478 28,000 250 Climbing Atlanta Center
Fri 05:43:56 PM 33.6358 -86.4142 272° West 420 483 28,000  Level Atlanta Center
Fri 05:44:56 PM 33.6456 -86.5517 275° West 420 483 28,000  Level Atlanta Center
Fri 05:45:56 PM 33.6550 -86.6892 275° West 420 483 28,000  Level Atlanta Center
Fri 05:46:56 PM 33.6647 -86.8267 275° West 420 483 28,000  Level Atlanta Center
Fri 05:47:56 PM 33.6761 -86.9594 276° West 420 483 28,000  Level Atlanta Center
Fri 05:48:56 PM 33.7042 -87.0928 284° West 415 478 28,000  Level Atlanta Center
Fri 05:50:57 PM 33.7567 -87.3667 283° West 430 495 28,000  Level Memphis Center
Fri 05:52:00 PM 33.7879 -87.4942 281° West  Level FlightAware Approximate
Fri 05:52:57 PM 33.8239 -87.6567 281° West 430 495 28,000  Level Memphis Center
Fri 05:53:57 PM 33.8542 -87.7958 285° West 436 502 28,000  Level Memphis Center
Fri 05:54:57 PM 33.8861 -87.9400 285° West 436 502 28,000  Level Memphis Center
Fri 05:55:57 PM 33.9158 -88.0819 284° West 436 502 28,000  Level Memphis Center
Fri 05:56:56 PM 33.9456 -88.2164 285° West 443 510 28,000  Level Memphis Center
Fri 05:57:56 PM 33.9792 -88.3608 286° West 448 516 28,000  Level Memphis Center
Fri 05:58:56 PM 34.0128 -88.5028 286° West 448 516 28,000  Level Memphis Center
Fri 05:59:56 PM 34.0461 -88.6450 286° West 448 516 28,000  Level Memphis Center
Fri 06:00:56 PM 34.0772 -88.7872 285° West 448 516 28,000  Level Memphis Center
Fri 06:01:56 PM 34.1081 -88.9247 285° West 438 504 28,000  Level Memphis Center
Fri 06:02:57 PM 34.1411 -89.0797 284° West 433 498 28,000  Level Memphis Center
Fri 06:03:56 PM 34.1736 -89.2225 285° West 433 498 28,000  Level Memphis Center
Fri 06:04:56 PM 34.2064 -89.3650 286° West 433 498 28,000  Level Memphis Center
Fri 06:05:56 PM 34.2367 -89.5081 284° West 433 498 28,000  Level Memphis Center
Fri 06:06:56 PM 34.2542 -89.6536 278° West 439 505 28,000  Level Memphis Center
Fri 06:07:56 PM 34.2467 -89.8044 267° West 445 512 28,000  Level Memphis Center
Fri 06:08:56 PM 34.2367 -89.9553 265° West 451 519 28,000  Level Memphis Center
Fri 06:09:56 PM 34.2308 -90.0883 267° West 456 525 28,000  Level Memphis Center
Fri 06:10:56 PM 34.2269 -90.2392 268° West 456 525 28,000  Level Memphis Center
Fri 06:11:56 PM 34.2228 -90.3922 268° West 461 531 28,000  Level Memphis Center
Fri 06:12:56 PM 34.2206 -90.5406 269° West 461 531 28,000 -650 Level Memphis Center
Fri 06:13:56 PM 34.2161 -90.6911 268° West 456 525 26,700 -1,500 Descending Memphis Center
Fri 06:14:56 PM 34.2133 -90.8594 269° West 456 525 25,000 -1,750 Descending Memphis Center
Fri 06:15:56 PM 34.2108 -91.0078 269° West 456 525 23,200 -1,750 Descending Memphis Center
Fri 06:16:56 PM 34.2369 -91.1461 283° West 437 503 21,500 -1,680 Descending Memphis Center
Fri 06:17:36 PM 34.2719 -91.2294 297° West 435 501 20,400 -1,600 Descending Memphis Center
Fri 06:17:56 PM 34.2903 -91.2772 295° West 432 497 19,900 -1,745 Descending Memphis Center
Fri 06:18:31 PM 34.3150 -91.3403 295° West 416 479 18,800 -2,200 Descending Memphis Center
Fri 06:18:56 PM 34.3417 -91.3936 301° West 405 466 17,700 -2,951 Descending Memphis Center
Fri 06:19:32 PM 34.3703 -91.4592 298° West 381 438 15,800 -3,500 Descending Memphis Center
Fri 06:19:56 PM 34.3867 -91.5072 292° West 389 448 14,200 -3,541 Descending Memphis Center
Fri 06:20:33 PM 34.4131 -91.5858 292° West 387 445 12,200 -3,000 Descending Memphis Center
Fri 06:20:56 PM 34.4292 -91.6314 293° West 384 442 11,200 -1,600 Descending Memphis Center
Fri 06:21:33 PM 34.4514 -91.6972 292° West 373 429 10,600 -1,000 Descending Memphis Center
Fri 06:21:56 PM 34.4719 -91.7378 302° West 366 421 10,200 -689 Descending Memphis Center
Fri 06:22:34 PM 34.4922 -91.7961 293° West 290 334 9,900 -1,100 Descending Memphis Center
Fri 06:22:56 PM 34.5064 -91.8264 300° West 331 381 9,100 -1,869 Descending Memphis Center
Fri 06:23:35 PM 34.5161 -91.8797 282° West 276 318 8,000 -1,900 Descending Memphis Center
Fri 06:23:56 PM 34.5281 -91.9203 290° West 304 350 7,200 -1,704 Descending Memphis Center
Fri 06:24:56 PM 34.5417 -92.0161 280° West 291 335 5,700 -1,740 Descending Memphis Center
Fri 06:25:36 PM 34.5511 -92.0794 280° West 279 321 4,300 -1,800 Descending Memphis Center
Fri 06:25:56 PM 34.5550 -92.0947 287° West 280 322 3,900 -1,443 Descending Memphis Center
Fri 06:26:55 PM 34.5744 -92.1933 283° West 269 310 2,400 -950 Descending Memphis Center
Fri 06:27:56 PM 34.5986 -92.2619 293° West 263 303 2,000 -393 Descending Memphis Center

Login

Don't have an account? Register now (free) for customized features, flight alerts, and more!